Kent, Iowa
Current Conditions -  °F | °C
As of 11:15 PM on Thursday 30 Oct 2014 (Local Time) from KCSQ Reporting Station
Overcast Overcast  
Wind Chill: 38°   Ceiling: 2800
Heat Index: 46°   Visibility: 10mi
Dew Point: 39°   Wind: 24mph
Humidity: 76%   Direction: 360°N
Pressure: 30.24"   Gusts: NA
Location:  40.8856°N, 94.5654°W
Report Text: KCSQ 310415Z AUTO 36021KT 10SM SCT021 OVC028 08/04 A3024 RMK AO2
Loading
Personal Weather Stations






























Interactive Weather Map
Tropical Storm Tracking
New forecast layout! Learn more

10-Day Weather Forecast

Advertisements
Track Severe Weather on mobile